sensor_id;sensor_type;location;lat;lon;timestamp;P1;durP1;ratioP1;P2;durP2;ratioP2
78614;SDS011;67937;52.488;20.952;2023-07-31T00:01:05;3.20;;;3.00;;
78614;SDS011;67937;52.488;20.952;2023-07-31T00:03:33;5.00;;;3.30;;
78614;SDS011;67937;52.488;20.952;2023-07-31T00:06:01;4.10;;;3.60;;
78614;SDS011;67937;52.488;20.952;2023-07-31T00:08:29;4.00;;;3.70;;
78614;SDS011;67937;52.488;20.952;2023-07-31T00:10:57;4.60;;;3.70;;
78614;SDS011;67937;52.488;20.952;2023-07-31T00:13:25;4.10;;;3.70;;
78614;SDS011;67937;52.488;20.952;2023-07-31T00:15:53;4.50;;;3.90;;
78614;SDS011;67937;52.488;20.952;2023-07-31T00:18:21;3.60;;;3.40;;
78614;SDS011;67937;52.488;20.952;2023-07-31T00:20:49;3.50;;;3.20;;
78614;SDS011;67937;52.488;20.952;2023-07-31T00:23:17;4.10;;;3.70;;
78614;SDS011;67937;52.488;20.952;2023-07-31T00:25:45;3.90;;;3.60;;
78614;SDS011;67937;52.488;20.952;2023-07-31T00:28:13;3.60;;;3.10;;
78614;SDS011;67937;52.488;20.952;2023-07-31T00:30:40;3.20;;;3.00;;
78614;SDS011;67937;52.488;20.952;2023-07-31T00:33:08;3.60;;;3.30;;
78614;SDS011;67937;52.488;20.952;2023-07-31T00:35:36;3.20;;;2.90;;
78614;SDS011;67937;52.488;20.952;2023-07-31T00:38:04;4.50;;;3.50;;
78614;SDS011;67937;52.488;20.952;2023-07-31T00:40:35;5.20;;;3.90;;
78614;SDS011;67937;52.488;20.952;2023-07-31T00:43:04;4.10;;;3.70;;
78614;SDS011;67937;52.488;20.952;2023-07-31T00:45:32;4.00;;;3.40;;
78614;SDS011;67937;52.488;20.952;2023-07-31T00:48:00;3.60;;;3.30;;
78614;SDS011;67937;52.488;20.952;2023-07-31T00:50:29;5.60;;;3.00;;
78614;SDS011;67937;52.488;20.952;2023-07-31T00:52:57;3.60;;;3.20;;
78614;SDS011;67937;52.488;20.952;2023-07-31T00:55:26;3.40;;;3.10;;
78614;SDS011;67937;52.488;20.952;2023-07-31T00:57:54;3.50;;;3.20;;
78614;SDS011;67937;52.488;20.952;2023-07-31T01:00:23;3.50;;;2.90;;
78614;SDS011;67937;52.488;20.952;2023-07-31T01:02:51;4.30;;;3.20;;
78614;SDS011;67937;52.488;20.952;2023-07-31T01:05:20;3.60;;;3.00;;
78614;SDS011;67937;52.488;20.952;2023-07-31T01:08:04;4.10;;;3.50;;
78614;SDS011;67937;52.488;20.952;2023-07-31T01:10:56;3.20;;;2.90;;
78614;SDS011;67937;52.488;20.952;2023-07-31T01:13:42;4.40;;;2.80;;
78614;SDS011;67937;52.488;20.952;2023-07-31T01:16:11;2.80;;;2.60;;
78614;SDS011;67937;52.488;20.952;2023-07-31T01:18:39;3.10;;;2.60;;
78614;SDS011;67937;52.488;20.952;2023-07-31T01:21:31;2.80;;;2.50;;
78614;SDS011;67937;52.488;20.952;2023-07-31T01:26:36;2.60;;;2.40;;
78614;SDS011;67937;52.488;20.952;2023-07-31T01:29:08;2.60;;;2.40;;
78614;SDS011;67937;52.488;20.952;2023-07-31T01:31:42;2.80;;;2.60;;
78614;SDS011;67937;52.488;20.952;2023-07-31T01:34:15;2.80;;;2.60;;
78614;SDS011;67937;52.488;20.952;2023-07-31T01:36:45;2.80;;;2.40;;
78614;SDS011;67937;52.488;20.952;2023-07-31T01:39:13;2.60;;;2.40;;
78614;SDS011;67937;52.488;20.952;2023-07-31T01:41:42;3.70;;;2.60;;
78614;SDS011;67937;52.488;20.952;2023-07-31T01:44:10;2.80;;;2.60;;
78614;SDS011;67937;52.488;20.952;2023-07-31T01:46:38;3.80;;;2.30;;
78614;SDS011;67937;52.488;20.952;2023-07-31T01:49:06;2.70;;;2.50;;
78614;SDS011;67937;52.488;20.952;2023-07-31T01:51:34;2.70;;;2.50;;
78614;SDS011;67937;52.488;20.952;2023-07-31T01:54:02;2.60;;;2.40;;
78614;SDS011;67937;52.488;20.952;2023-07-31T01:56:30;3.30;;;3.00;;
78614;SDS011;67937;52.488;20.952;2023-07-31T01:58:58;2.90;;;2.60;;
78614;SDS011;67937;52.488;20.952;2023-07-31T02:01:26;2.80;;;2.30;;
78614;SDS011;67937;52.488;20.952;2023-07-31T02:03:54;2.80;;;2.60;;
78614;SDS011;67937;52.488;20.952;2023-07-31T02:06:22;2.80;;;2.40;;
78614;SDS011;67937;52.488;20.952;2023-07-31T02:08:50;5.20;;;2.90;;
78614;SDS011;67937;52.488;20.952;2023-07-31T02:11:18;3.90;;;2.60;;
78614;SDS011;67937;52.488;20.952;2023-07-31T02:13:46;3.00;;;2.70;;
78614;SDS011;67937;52.488;20.952;2023-07-31T02:16:14;3.30;;;2.40;;
78614;SDS011;67937;52.488;20.952;2023-07-31T02:18:42;4.70;;;2.80;;
78614;SDS011;67937;52.488;20.952;2023-07-31T02:21:10;3.00;;;2.80;;
78614;SDS011;67937;52.488;20.952;2023-07-31T02:23:37;4.20;;;2.60;;
78614;SDS011;67937;52.488;20.952;2023-07-31T02:26:05;5.00;;;2.60;;
78614;SDS011;67937;52.488;20.952;2023-07-31T02:28:33;3.40;;;2.80;;
78614;SDS011;67937;52.488;20.952;2023-07-31T02:31:01;2.70;;;2.50;;
78614;SDS011;67937;52.488;20.952;2023-07-31T02:33:29;2.60;;;2.40;;
78614;SDS011;67937;52.488;20.952;2023-07-31T02:35:57;3.10;;;2.70;;
78614;SDS011;67937;52.488;20.952;2023-07-31T02:38:25;2.90;;;2.60;;
78614;SDS011;67937;52.488;20.952;2023-07-31T02:40:53;3.60;;;2.20;;
78614;SDS011;67937;52.488;20.952;2023-07-31T02:43:21;2.70;;;2.50;;
78614;SDS011;67937;52.488;20.952;2023-07-31T02:45:52;2.50;;;2.30;;
78614;SDS011;67937;52.488;20.952;2023-07-31T02:48:20;2.60;;;2.40;;
78614;SDS011;67937;52.488;20.952;2023-07-31T02:50:48;2.90;;;2.10;;
78614;SDS011;67937;52.488;20.952;2023-07-31T02:53:16;3.50;;;2.40;;
78614;SDS011;67937;52.488;20.952;2023-07-31T02:55:44;6.20;;;2.70;;
78614;SDS011;67937;52.488;20.952;2023-07-31T02:58:12;2.30;;;2.10;;
78614;SDS011;67937;52.488;20.952;2023-07-31T03:00:43;2.80;;;2.60;;
78614;SDS011;67937;52.488;20.952;2023-07-31T03:03:11;3.30;;;2.40;;
78614;SDS011;67937;52.488;20.952;2023-07-31T03:05:39;5.80;;;3.00;;
78614;SDS011;67937;52.488;20.952;2023-07-31T03:08:07;2.20;;;2.10;;
78614;SDS011;67937;52.488;20.952;2023-07-31T03:10:35;2.60;;;2.40;;
78614;SDS011;67937;52.488;20.952;2023-07-31T03:13:03;3.20;;;2.80;;
78614;SDS011;67937;52.488;20.952;2023-07-31T03:15:31;3.80;;;2.60;;
78614;SDS011;67937;52.488;20.952;2023-07-31T03:17:59;3.90;;;2.70;;
78614;SDS011;67937;52.488;20.952;2023-07-31T03:20:27;5.50;;;2.80;;
78614;SDS011;67937;52.488;20.952;2023-07-31T03:22:55;3.10;;;2.70;;
78614;SDS011;67937;52.488;20.952;2023-07-31T03:25:23;2.70;;;2.50;;
78614;SDS011;67937;52.488;20.952;2023-07-31T03:27:51;2.30;;;2.10;;
78614;SDS011;67937;52.488;20.952;2023-07-31T03:30:19;2.60;;;2.40;;
78614;SDS011;67937;52.488;20.952;2023-07-31T03:32:47;2.90;;;2.50;;
78614;SDS011;67937;52.488;20.952;2023-07-31T03:35:15;2.70;;;2.30;;
78614;SDS011;67937;52.488;20.952;2023-07-31T03:37:43;2.70;;;2.50;;
78614;SDS011;67937;52.488;20.952;2023-07-31T03:40:11;4.00;;;3.10;;
78614;SDS011;67937;52.488;20.952;2023-07-31T03:42:39;3.20;;;3.00;;
78614;SDS011;67937;52.488;20.952;2023-07-31T03:45:07;2.60;;;2.40;;
78614;SDS011;67937;52.488;20.952;2023-07-31T03:47:36;2.70;;;2.40;;
78614;SDS011;67937;52.488;20.952;2023-07-31T03:50:04;3.40;;;2.50;;
78614;SDS011;67937;52.488;20.952;2023-07-31T03:52:32;3.00;;;2.80;;
78614;SDS011;67937;52.488;20.952;2023-07-31T03:55:00;2.30;;;2.20;;
78614;SDS011;67937;52.488;20.952;2023-07-31T03:57:28;2.90;;;2.30;;
78614;SDS011;67937;52.488;20.952;2023-07-31T03:59:59;5.50;;;3.00;;
78614;SDS011;67937;52.488;20.952;2023-07-31T04:02:27;3.10;;;2.50;;
78614;SDS011;67937;52.488;20.952;2023-07-31T04:04:55;3.30;;;3.00;;
78614;SDS011;67937;52.488;20.952;2023-07-31T04:07:23;2.50;;;2.30;;
78614;SDS011;67937;52.488;20.952;2023-07-31T04:09:51;4.40;;;2.90;;
78614;SDS011;67937;52.488;20.952;2023-07-31T04:12:18;6.40;;;3.10;;
78614;SDS011;67937;52.488;20.952;2023-07-31T04:14:46;3.50;;;2.90;;
78614;SDS011;67937;52.488;20.952;2023-07-31T04:17:14;4.90;;;3.00;;
78614;SDS011;67937;52.488;20.952;2023-07-31T04:19:42;5.70;;;2.60;;
78614;SDS011;67937;52.488;20.952;2023-07-31T04:22:10;4.50;;;2.60;;
78614;SDS011;67937;52.488;20.952;2023-07-31T04:24:38;4.20;;;2.90;;
78614;SDS011;67937;52.488;20.952;2023-07-31T04:27:06;2.70;;;2.50;;
78614;SDS011;67937;52.488;20.952;2023-07-31T04:29:34;3.20;;;2.80;;
78614;SDS011;67937;52.488;20.952;2023-07-31T04:32:02;3.30;;;2.20;;
78614;SDS011;67937;52.488;20.952;2023-07-31T04:34:30;3.30;;;2.70;;
78614;SDS011;67937;52.488;20.952;2023-07-31T04:36:58;2.70;;;2.50;;
78614;SDS011;67937;52.488;20.952;2023-07-31T04:39:26;2.80;;;2.60;;
78614;SDS011;67937;52.488;20.952;2023-07-31T04:41:54;3.90;;;2.90;;
78614;SDS011;67937;52.488;20.952;2023-07-31T04:44:22;3.50;;;2.60;;
78614;SDS011;67937;52.488;20.952;2023-07-31T04:46:50;2.60;;;2.40;;
78614;SDS011;67937;52.488;20.952;2023-07-31T04:49:19;3.90;;;2.70;;
78614;SDS011;67937;52.488;20.952;2023-07-31T04:51:47;2.50;;;2.20;;
78614;SDS011;67937;52.488;20.952;2023-07-31T04:54:15;3.10;;;2.30;;
78614;SDS011;67937;52.488;20.952;2023-07-31T04:56:43;3.90;;;2.50;;
78614;SDS011;67937;52.488;20.952;2023-07-31T04:59:11;4.40;;;2.90;;
78614;SDS011;67937;52.488;20.952;2023-07-31T05:01:39;3.10;;;2.70;;
78614;SDS011;67937;52.488;20.952;2023-07-31T05:04:07;3.80;;;2.30;;
78614;SDS011;67937;52.488;20.952;2023-07-31T05:06:35;2.50;;;2.10;;
78614;SDS011;67937;52.488;20.952;2023-07-31T05:09:03;2.80;;;2.10;;
78614;SDS011;67937;52.488;20.952;2023-07-31T05:11:31;2.50;;;2.00;;
78614;SDS011;67937;52.488;20.952;2023-07-31T05:13:59;2.60;;;2.40;;
78614;SDS011;67937;52.488;20.952;2023-07-31T05:16:28;3.30;;;2.60;;
78614;SDS011;67937;52.488;20.952;2023-07-31T05:18:56;3.20;;;2.40;;
78614;SDS011;67937;52.488;20.952;2023-07-31T05:21:24;2.00;;;1.90;;
78614;SDS011;67937;52.488;20.952;2023-07-31T05:23:52;2.70;;;1.70;;
78614;SDS011;67937;52.488;20.952;2023-07-31T05:26:20;4.10;;;1.90;;
78614;SDS011;67937;52.488;20.952;2023-07-31T05:28:48;3.80;;;2.20;;
78614;SDS011;67937;52.488;20.952;2023-07-31T05:31:16;3.20;;;2.90;;
78614;SDS011;67937;52.488;20.952;2023-07-31T05:33:44;3.00;;;1.90;;
78614;SDS011;67937;52.488;20.952;2023-07-31T05:36:12;2.50;;;2.20;;
78614;SDS011;67937;52.488;20.952;2023-07-31T05:38:40;3.20;;;1.90;;
78614;SDS011;67937;52.488;20.952;2023-07-31T05:41:13;2.30;;;1.80;;
78614;SDS011;67937;52.488;20.952;2023-07-31T05:43:41;3.40;;;2.20;;
78614;SDS011;67937;52.488;20.952;2023-07-31T05:46:10;2.10;;;1.90;;
78614;SDS011;67937;52.488;20.952;2023-07-31T05:48:39;4.00;;;2.20;;
78614;SDS011;67937;52.488;20.952;2023-07-31T05:51:07;1.90;;;1.80;;
78614;SDS011;67937;52.488;20.952;2023-07-31T05:53:35;5.00;;;2.20;;
78614;SDS011;67937;52.488;20.952;2023-07-31T05:56:07;2.30;;;2.10;;
78614;SDS011;67937;52.488;20.952;2023-07-31T05:58:35;2.70;;;2.50;;
78614;SDS011;67937;52.488;20.952;2023-07-31T06:01:03;4.60;;;2.70;;
78614;SDS011;67937;52.488;20.952;2023-07-31T06:03:31;2.10;;;1.90;;
78614;SDS011;67937;52.488;20.952;2023-07-31T06:05:59;6.70;;;2.60;;
78614;SDS011;67937;52.488;20.952;2023-07-31T06:08:27;4.00;;;2.50;;
78614;SDS011;67937;52.488;20.952;2023-07-31T06:10:55;5.70;;;2.70;;
78614;SDS011;67937;52.488;20.952;2023-07-31T06:13:23;4.30;;;2.40;;
78614;SDS011;67937;52.488;20.952;2023-07-31T06:15:51;2.50;;;2.20;;
78614;SDS011;67937;52.488;20.952;2023-07-31T06:18:19;2.80;;;2.50;;
78614;SDS011;67937;52.488;20.952;2023-07-31T06:20:47;3.90;;;2.70;;
78614;SDS011;67937;52.488;20.952;2023-07-31T06:23:19;3.10;;;2.20;;
78614;SDS011;67937;52.488;20.952;2023-07-31T06:25:48;2.50;;;2.00;;
78614;SDS011;67937;52.488;20.952;2023-07-31T06:28:16;3.50;;;2.10;;
78614;SDS011;67937;52.488;20.952;2023-07-31T06:30:44;2.50;;;2.20;;
78614;SDS011;67937;52.488;20.952;2023-07-31T06:33:12;2.40;;;2.00;;
78614;SDS011;67937;52.488;20.952;2023-07-31T06:35:40;2.40;;;2.20;;
78614;SDS011;67937;52.488;20.952;2023-07-31T06:38:08;2.10;;;2.00;;
78614;SDS011;67937;52.488;20.952;2023-07-31T06:40:36;2.40;;;2.20;;
78614;SDS011;67937;52.488;20.952;2023-07-31T06:43:05;3.40;;;2.30;;
78614;SDS011;67937;52.488;20.952;2023-07-31T06:45:35;4.30;;;2.10;;
78614;SDS011;67937;52.488;20.952;2023-07-31T06:48:04;3.90;;;2.40;;
78614;SDS011;67937;52.488;20.952;2023-07-31T06:50:32;2.80;;;1.80;;
78614;SDS011;67937;52.488;20.952;2023-07-31T06:53:00;4.00;;;2.30;;
78614;SDS011;67937;52.488;20.952;2023-07-31T06:55:29;2.90;;;2.40;;
78614;SDS011;67937;52.488;20.952;2023-07-31T06:57:57;2.30;;;2.10;;
78614;SDS011;67937;52.488;20.952;2023-07-31T07:00:25;7.10;;;2.40;;
78614;SDS011;67937;52.488;20.952;2023-07-31T07:02:53;2.40;;;2.20;;
78614;SDS011;67937;52.488;20.952;2023-07-31T07:05:21;2.20;;;1.90;;
78614;SDS011;67937;52.488;20.952;2023-07-31T07:07:49;4.00;;;2.10;;
78614;SDS011;67937;52.488;20.952;2023-07-31T07:10:18;3.70;;;1.90;;
78614;SDS011;67937;52.488;20.952;2023-07-31T07:12:47;2.20;;;1.90;;
78614;SDS011;67937;52.488;20.952;2023-07-31T07:15:15;2.60;;;1.90;;
78614;SDS011;67937;52.488;20.952;2023-07-31T07:17:43;1.90;;;1.70;;
78614;SDS011;67937;52.488;20.952;2023-07-31T07:20:12;3.30;;;2.70;;
78614;SDS011;67937;52.488;20.952;2023-07-31T07:22:40;2.70;;;2.00;;
78614;SDS011;67937;52.488;20.952;2023-07-31T07:25:09;2.00;;;1.80;;
78614;SDS011;67937;52.488;20.952;2023-07-31T07:27:37;2.20;;;1.70;;
78614;SDS011;67937;52.488;20.952;2023-07-31T07:30:05;2.40;;;1.80;;
78614;SDS011;67937;52.488;20.952;2023-07-31T07:32:35;4.00;;;2.40;;
78614;SDS011;67937;52.488;20.952;2023-07-31T07:35:03;2.20;;;1.80;;
78614;SDS011;67937;52.488;20.952;2023-07-31T07:37:31;3.60;;;2.10;;
78614;SDS011;67937;52.488;20.952;2023-07-31T07:40:00;3.60;;;2.10;;
78614;SDS011;67937;52.488;20.952;2023-07-31T07:42:28;2.50;;;1.70;;
78614;SDS011;67937;52.488;20.952;2023-07-31T07:44:57;2.00;;;1.80;;
78614;SDS011;67937;52.488;20.952;2023-07-31T07:47:25;2.70;;;2.00;;
78614;SDS011;67937;52.488;20.952;2023-07-31T07:49:53;3.10;;;1.80;;
78614;SDS011;67937;52.488;20.952;2023-07-31T07:52:21;2.30;;;1.90;;
78614;SDS011;67937;52.488;20.952;2023-07-31T07:54:49;2.00;;;1.80;;
78614;SDS011;67937;52.488;20.952;2023-07-31T07:57:17;3.20;;;1.90;;
78614;SDS011;67937;52.488;20.952;2023-07-31T07:59:46;2.60;;;2.00;;
78614;SDS011;67937;52.488;20.952;2023-07-31T08:02:14;3.30;;;1.90;;
78614;SDS011;67937;52.488;20.952;2023-07-31T08:04:42;2.50;;;2.30;;
78614;SDS011;67937;52.488;20.952;2023-07-31T08:07:10;2.30;;;1.70;;
78614;SDS011;67937;52.488;20.952;2023-07-31T08:09:39;2.10;;;1.90;;
78614;SDS011;67937;52.488;20.952;2023-07-31T08:12:08;3.20;;;2.20;;
78614;SDS011;67937;52.488;20.952;2023-07-31T08:14:36;7.70;;;2.40;;
78614;SDS011;67937;52.488;20.952;2023-07-31T08:17:04;4.10;;;2.20;;
78614;SDS011;67937;52.488;20.952;2023-07-31T08:19:32;4.80;;;2.60;;
78614;SDS011;67937;52.488;20.952;2023-07-31T08:22:01;6.20;;;2.40;;
78614;SDS011;67937;52.488;20.952;2023-07-31T08:24:29;3.70;;;2.20;;
78614;SDS011;67937;52.488;20.952;2023-07-31T08:26:58;3.20;;;2.10;;
78614;SDS011;67937;52.488;20.952;2023-07-31T08:29:26;1.60;;;1.50;;
78614;SDS011;67937;52.488;20.952;2023-07-31T08:31:54;1.90;;;1.80;;
78614;SDS011;67937;52.488;20.952;2023-07-31T08:34:22;2.90;;;1.80;;
78614;SDS011;67937;52.488;20.952;2023-07-31T08:36:50;3.50;;;2.20;;
78614;SDS011;67937;52.488;20.952;2023-07-31T08:39:18;1.80;;;1.70;;
78614;SDS011;67937;52.488;20.952;2023-07-31T08:41:47;2.40;;;2.20;;
78614;SDS011;67937;52.488;20.952;2023-07-31T08:44:15;3.30;;;2.00;;
78614;SDS011;67937;52.488;20.952;2023-07-31T08:46:45;2.70;;;2.10;;
78614;SDS011;67937;52.488;20.952;2023-07-31T08:49:15;2.00;;;1.80;;
78614;SDS011;67937;52.488;20.952;2023-07-31T08:51:45;3.60;;;2.40;;
78614;SDS011;67937;52.488;20.952;2023-07-31T08:54:17;2.10;;;1.70;;
78614;SDS011;67937;52.488;20.952;2023-07-31T08:56:45;5.40;;;1.90;;
78614;SDS011;67937;52.488;20.952;2023-07-31T08:59:14;2.60;;;1.70;;
78614;SDS011;67937;52.488;20.952;2023-07-31T09:04:17;3.80;;;2.10;;
78614;SDS011;67937;52.488;20.952;2023-07-31T09:06:47;2.30;;;2.10;;
78614;SDS011;67937;52.488;20.952;2023-07-31T09:09:16;2.10;;;1.90;;
78614;SDS011;67937;52.488;20.952;2023-07-31T09:11:44;3.60;;;1.70;;
78614;SDS011;67937;52.488;20.952;2023-07-31T09:14:12;1.80;;;1.50;;
78614;SDS011;67937;52.488;20.952;2023-07-31T09:19:33;3.20;;;1.70;;
78614;SDS011;67937;52.488;20.952;2023-07-31T09:22:06;1.80;;;1.70;;
78614;SDS011;67937;52.488;20.952;2023-07-31T09:24:35;2.20;;;1.80;;
78614;SDS011;67937;52.488;20.952;2023-07-31T09:27:03;2.00;;;1.30;;
78614;SDS011;67937;52.488;20.952;2023-07-31T09:29:31;1.60;;;1.30;;
78614;SDS011;67937;52.488;20.952;2023-07-31T09:31:59;2.80;;;1.30;;
78614;SDS011;67937;52.488;20.952;2023-07-31T09:34:28;2.00;;;1.40;;
78614;SDS011;67937;52.488;20.952;2023-07-31T09:39:28;3.40;;;1.20;;
78614;SDS011;67937;52.488;20.952;2023-07-31T09:41:58;1.60;;;1.20;;
78614;SDS011;67937;52.488;20.952;2023-07-31T09:44:39;1.60;;;1.50;;
78614;SDS011;67937;52.488;20.952;2023-07-31T09:47:22;1.40;;;1.30;;
78614;SDS011;67937;52.488;20.952;2023-07-31T09:49:52;2.70;;;1.30;;
78614;SDS011;67937;52.488;20.952;2023-07-31T09:52:20;1.40;;;1.30;;
78614;SDS011;67937;52.488;20.952;2023-07-31T09:54:50;3.50;;;1.60;;
78614;SDS011;67937;52.488;20.952;2023-07-31T09:57:22;1.50;;;1.40;;
78614;SDS011;67937;52.488;20.952;2023-07-31T09:59:52;1.80;;;1.30;;
78614;SDS011;67937;52.488;20.952;2023-07-31T10:02:22;1.50;;;1.20;;
78614;SDS011;67937;52.488;20.952;2023-07-31T10:04:51;1.70;;;1.00;;
78614;SDS011;67937;52.488;20.952;2023-07-31T10:07:25;2.10;;;1.10;;
78614;SDS011;67937;52.488;20.952;2023-07-31T10:09:53;2.30;;;1.10;;
78614;SDS011;67937;52.488;20.952;2023-07-31T10:12:26;1.80;;;1.20;;
78614;SDS011;67937;52.488;20.952;2023-07-31T10:14:55;0.90;;;0.90;;
78614;SDS011;67937;52.488;20.952;2023-07-31T10:17:25;2.30;;;1.00;;
78614;SDS011;67937;52.488;20.952;2023-07-31T10:19:54;2.00;;;1.20;;
78614;SDS011;67937;52.488;20.952;2023-07-31T10:22:26;2.00;;;1.40;;
78614;SDS011;67937;52.488;20.952;2023-07-31T10:24:57;1.80;;;1.20;;
78614;SDS011;67937;52.488;20.952;2023-07-31T10:27:29;1.50;;;1.40;;
78614;SDS011;67937;52.488;20.952;2023-07-31T10:29:57;2.30;;;1.10;;
78614;SDS011;67937;52.488;20.952;2023-07-31T10:32:27;1.10;;;0.90;;
78614;SDS011;67937;52.488;20.952;2023-07-31T10:34:56;0.80;;;0.80;;
78614;SDS011;67937;52.488;20.952;2023-07-31T10:37:29;1.10;;;0.90;;
78614;SDS011;67937;52.488;20.952;2023-07-31T10:42:34;1.30;;;1.10;;
78614;SDS011;67937;52.488;20.952;2023-07-31T10:45:06;2.00;;;1.30;;
78614;SDS011;67937;52.488;20.952;2023-07-31T10:47:46;0.90;;;0.80;;
78614;SDS011;67937;52.488;20.952;2023-07-31T10:52:51;2.10;;;1.00;;
78614;SDS011;67937;52.488;20.952;2023-07-31T10:58:08;1.50;;;1.10;;
78614;SDS011;67937;52.488;20.952;2023-07-31T11:00:44;1.00;;;1.00;;
78614;SDS011;67937;52.488;20.952;2023-07-31T11:03:15;1.20;;;0.70;;
78614;SDS011;67937;52.488;20.952;2023-07-31T11:16:17;1.00;;;0.80;;
78614;SDS011;67937;52.488;20.952;2023-07-31T11:18:47;1.10;;;1.00;;
78614;SDS011;67937;52.488;20.952;2023-07-31T11:21:18;0.60;;;0.50;;
78614;SDS011;67937;52.488;20.952;2023-07-31T11:23:51;1.30;;;1.00;;
78614;SDS011;67937;52.488;20.952;2023-07-31T11:26:21;0.90;;;0.80;;
78614;SDS011;67937;52.488;20.952;2023-07-31T11:28:51;0.80;;;0.80;;
78614;SDS011;67937;52.488;20.952;2023-07-31T11:31:19;1.60;;;1.20;;
78614;SDS011;67937;52.488;20.952;2023-07-31T11:33:48;1.60;;;1.00;;
78614;SDS011;67937;52.488;20.952;2023-07-31T11:36:17;2.90;;;0.80;;
78614;SDS011;67937;52.488;20.952;2023-07-31T11:38:47;1.20;;;1.00;;
78614;SDS011;67937;52.488;20.952;2023-07-31T11:41:16;1.20;;;0.70;;
78614;SDS011;67937;52.488;20.952;2023-07-31T11:43:45;1.70;;;1.10;;
78614;SDS011;67937;52.488;20.952;2023-07-31T11:46:15;1.00;;;0.90;;
78614;SDS011;67937;52.488;20.952;2023-07-31T11:48:44;1.70;;;1.10;;
78614;SDS011;67937;52.488;20.952;2023-07-31T11:51:14;1.60;;;1.20;;
78614;SDS011;67937;52.488;20.952;2023-07-31T11:53:44;3.30;;;1.00;;
78614;SDS011;67937;52.488;20.952;2023-07-31T11:56:18;1.60;;;1.30;;
78614;SDS011;67937;52.488;20.952;2023-07-31T11:58:49;1.20;;;0.90;;
78614;SDS011;67937;52.488;20.952;2023-07-31T12:01:21;2.40;;;1.10;;
78614;SDS011;67937;52.488;20.952;2023-07-31T12:03:50;0.90;;;0.90;;
78614;SDS011;67937;52.488;20.952;2023-07-31T12:06:20;2.50;;;1.50;;
78614;SDS011;67937;52.488;20.952;2023-07-31T12:08:48;2.50;;;1.00;;
78614;SDS011;67937;52.488;20.952;2023-07-31T12:11:18;0.90;;;0.90;;
78614;SDS011;67937;52.488;20.952;2023-07-31T12:13:46;1.80;;;1.10;;
78614;SDS011;67937;52.488;20.952;2023-07-31T12:16:14;1.90;;;1.10;;
78614;SDS011;67937;52.488;20.952;2023-07-31T12:18:43;0.90;;;0.70;;
78614;SDS011;67937;52.488;20.952;2023-07-31T12:21:12;1.80;;;1.10;;
78614;SDS011;67937;52.488;20.952;2023-07-31T12:23:40;1.80;;;1.00;;
78614;SDS011;67937;52.488;20.952;2023-07-31T12:26:11;0.90;;;0.90;;
78614;SDS011;67937;52.488;20.952;2023-07-31T12:28:43;1.20;;;0.90;;
78614;SDS011;67937;52.488;20.952;2023-07-31T12:31:16;2.50;;;1.20;;
78614;SDS011;67937;52.488;20.952;2023-07-31T12:33:47;2.90;;;1.20;;
78614;SDS011;67937;52.488;20.952;2023-07-31T12:36:16;2.30;;;0.90;;
78614;SDS011;67937;52.488;20.952;2023-07-31T12:38:46;1.80;;;1.10;;
78614;SDS011;67937;52.488;20.952;2023-07-31T12:41:15;3.40;;;1.50;;
78614;SDS011;67937;52.488;20.952;2023-07-31T12:43:43;1.50;;;1.20;;
78614;SDS011;67937;52.488;20.952;2023-07-31T12:46:12;2.10;;;1.40;;
78614;SDS011;67937;52.488;20.952;2023-07-31T12:48:41;0.90;;;0.90;;
78614;SDS011;67937;52.488;20.952;2023-07-31T12:51:09;1.90;;;1.00;;
78614;SDS011;67937;52.488;20.952;2023-07-31T12:53:37;2.80;;;1.30;;
78614;SDS011;67937;52.488;20.952;2023-07-31T12:56:05;4.50;;;1.10;;
78614;SDS011;67937;52.488;20.952;2023-07-31T12:58:33;2.00;;;0.90;;
78614;SDS011;67937;52.488;20.952;2023-07-31T13:01:02;1.90;;;1.30;;
78614;SDS011;67937;52.488;20.952;2023-07-31T13:03:30;3.40;;;1.30;;
78614;SDS011;67937;52.488;20.952;2023-07-31T13:05:58;2.00;;;1.20;;
78614;SDS011;67937;52.488;20.952;2023-07-31T13:08:26;1.20;;;1.10;;
78614;SDS011;67937;52.488;20.952;2023-07-31T13:10:54;2.30;;;1.00;;
78614;SDS011;67937;52.488;20.952;2023-07-31T13:13:22;1.30;;;0.80;;
78614;SDS011;67937;52.488;20.952;2023-07-31T13:15:50;1.40;;;1.00;;
78614;SDS011;67937;52.488;20.952;2023-07-31T13:18:19;1.40;;;1.20;;
78614;SDS011;67937;52.488;20.952;2023-07-31T13:20:47;1.40;;;1.00;;
78614;SDS011;67937;52.488;20.952;2023-07-31T13:23:15;2.30;;;1.10;;
78614;SDS011;67937;52.488;20.952;2023-07-31T13:25:43;2.40;;;1.00;;
78614;SDS011;67937;52.488;20.952;2023-07-31T13:28:11;2.30;;;1.20;;
78614;SDS011;67937;52.488;20.952;2023-07-31T13:30:39;2.50;;;1.10;;
78614;SDS011;67937;52.488;20.952;2023-07-31T13:33:07;2.50;;;1.10;;
78614;SDS011;67937;52.488;20.952;2023-07-31T13:35:35;1.70;;;1.30;;
78614;SDS011;67937;52.488;20.952;2023-07-31T13:38:03;1.50;;;1.30;;
78614;SDS011;67937;52.488;20.952;2023-07-31T13:40:32;2.30;;;1.20;;
78614;SDS011;67937;52.488;20.952;2023-07-31T13:43:00;2.00;;;1.00;;
78614;SDS011;67937;52.488;20.952;2023-07-31T13:45:28;4.40;;;1.10;;
78614;SDS011;67937;52.488;20.952;2023-07-31T13:47:56;1.80;;;0.90;;
78614;SDS011;67937;52.488;20.952;2023-07-31T13:50:24;1.40;;;0.80;;
78614;SDS011;67937;52.488;20.952;2023-07-31T13:52:52;2.30;;;1.40;;
78614;SDS011;67937;52.488;20.952;2023-07-31T13:55:20;0.90;;;0.90;;
78614;SDS011;67937;52.488;20.952;2023-07-31T13:57:48;1.80;;;1.10;;
78614;SDS011;67937;52.488;20.952;2023-07-31T14:00:16;2.70;;;1.40;;
78614;SDS011;67937;52.488;20.952;2023-07-31T14:02:46;1.90;;;1.10;;
78614;SDS011;67937;52.488;20.952;2023-07-31T14:05:15;3.20;;;1.00;;
78614;SDS011;67937;52.488;20.952;2023-07-31T14:07:43;3.00;;;1.40;;
78614;SDS011;67937;52.488;20.952;2023-07-31T14:10:11;1.30;;;1.20;;
78614;SDS011;67937;52.488;20.952;2023-07-31T14:12:40;4.70;;;1.60;;
78614;SDS011;67937;52.488;20.952;2023-07-31T14:15:08;2.40;;;1.10;;
78614;SDS011;67937;52.488;20.952;2023-07-31T14:17:36;1.50;;;1.00;;
78614;SDS011;67937;52.488;20.952;2023-07-31T14:20:05;3.10;;;1.30;;
78614;SDS011;67937;52.488;20.952;2023-07-31T14:22:33;4.10;;;1.50;;
78614;SDS011;67937;52.488;20.952;2023-07-31T14:25:01;3.10;;;1.20;;
78614;SDS011;67937;52.488;20.952;2023-07-31T14:27:30;5.50;;;1.70;;
78614;SDS011;67937;52.488;20.952;2023-07-31T14:29:58;5.30;;;1.30;;
78614;SDS011;67937;52.488;20.952;2023-07-31T14:32:26;1.80;;;1.20;;
78614;SDS011;67937;52.488;20.952;2023-07-31T14:34:54;2.70;;;1.20;;
78614;SDS011;67937;52.488;20.952;2023-07-31T14:37:22;2.70;;;1.30;;
78614;SDS011;67937;52.488;20.952;2023-07-31T14:39:50;2.50;;;1.40;;
78614;SDS011;67937;52.488;20.952;2023-07-31T14:42:18;3.30;;;1.30;;
78614;SDS011;67937;52.488;20.952;2023-07-31T14:44:46;2.50;;;1.10;;
78614;SDS011;67937;52.488;20.952;2023-07-31T14:47:15;4.70;;;1.30;;
78614;SDS011;67937;52.488;20.952;2023-07-31T14:49:43;1.60;;;1.40;;
78614;SDS011;67937;52.488;20.952;2023-07-31T14:52:11;2.90;;;1.30;;
78614;SDS011;67937;52.488;20.952;2023-07-31T14:54:39;3.30;;;1.40;;
78614;SDS011;67937;52.488;20.952;2023-07-31T14:57:07;2.30;;;1.10;;
78614;SDS011;67937;52.488;20.952;2023-07-31T14:59:36;4.00;;;1.40;;
78614;SDS011;67937;52.488;20.952;2023-07-31T15:02:04;3.10;;;1.40;;
78614;SDS011;67937;52.488;20.952;2023-07-31T15:04:33;1.70;;;1.20;;
78614;SDS011;67937;52.488;20.952;2023-07-31T15:07:01;2.60;;;1.20;;
78614;SDS011;67937;52.488;20.952;2023-07-31T15:09:30;1.20;;;1.00;;
78614;SDS011;67937;52.488;20.952;2023-07-31T15:11:58;3.70;;;1.50;;